sensor_id;sensor_type;location;lat;lon;timestamp;temperature;humidity
11617;DHT22;5864;52.998;9.068;2023-07-02T00:02:28;16.20;99.90
11617;DHT22;5864;52.998;9.068;2023-07-02T00:05:13;16.10;99.90
11617;DHT22;5864;52.998;9.068;2023-07-02T00:08:00;16.10;99.90
11617;DHT22;5864;52.998;9.068;2023-07-02T00:10:45;16.20;99.90
11617;DHT22;5864;52.998;9.068;2023-07-02T00:13:31;16.20;99.90
11617;DHT22;5864;52.998;9.068;2023-07-02T00:16:16;16.20;99.90
11617;DHT22;5864;52.998;9.068;2023-07-02T00:19:03;16.20;99.90
11617;DHT22;5864;52.998;9.068;2023-07-02T00:21:49;16.10;99.90
11617;DHT22;5864;52.998;9.068;2023-07-02T00:24:35;16.20;99.90
11617;DHT22;5864;52.998;9.068;2023-07-02T00:27:21;16.20;99.90
11617;DHT22;5864;52.998;9.068;2023-07-02T00:30:07;16.10;99.90
11617;DHT22;5864;52.998;9.068;2023-07-02T00:32:53;16.10;99.90
11617;DHT22;5864;52.998;9.068;2023-07-02T00:35:40;16.10;99.90
11617;DHT22;5864;52.998;9.068;2023-07-02T00:38:26;16.20;99.90
11617;DHT22;5864;52.998;9.068;2023-07-02T00:41:12;16.20;99.90
11617;DHT22;5864;52.998;9.068;2023-07-02T00:43:57;16.10;99.90
11617;DHT22;5864;52.998;9.068;2023-07-02T00:46:43;16.00;99.90
11617;DHT22;5864;52.998;9.068;2023-07-02T00:49:28;16.00;99.90
11617;DHT22;5864;52.998;9.068;2023-07-02T00:52:16;15.90;99.90
11617;DHT22;5864;52.998;9.068;2023-07-02T00:55:04;16.00;99.90
11617;DHT22;5864;52.998;9.068;2023-07-02T00:57:51;16.00;99.90
11617;DHT22;5864;52.998;9.068;2023-07-02T01:00:36;16.00;99.90
11617;DHT22;5864;52.998;9.068;2023-07-02T01:03:22;16.10;99.90
11617;DHT22;5864;52.998;9.068;2023-07-02T01:06:07;16.10;99.90
11617;DHT22;5864;52.998;9.068;2023-07-02T01:09:00;16.10;99.90
11617;DHT22;5864;52.998;9.068;2023-07-02T01:11:50;16.10;99.90
11617;DHT22;5864;52.998;9.068;2023-07-02T01:14:40;16.20;99.90
11617;DHT22;5864;52.998;9.068;2023-07-02T01:17:27;16.10;99.90
11617;DHT22;5864;52.998;9.068;2023-07-02T01:20:24;16.20;99.90
11617;DHT22;5864;52.998;9.068;2023-07-02T01:23:11;16.20;99.90
11617;DHT22;5864;52.998;9.068;2023-07-02T01:25:56;16.20;99.90
11617;DHT22;5864;52.998;9.068;2023-07-02T01:28:43;16.10;99.90
11617;DHT22;5864;52.998;9.068;2023-07-02T01:31:29;16.10;99.90
11617;DHT22;5864;52.998;9.068;2023-07-02T01:34:15;16.10;99.90
11617;DHT22;5864;52.998;9.068;2023-07-02T01:37:03;16.10;99.90
11617;DHT22;5864;52.998;9.068;2023-07-02T01:39:48;16.20;99.90
11617;DHT22;5864;52.998;9.068;2023-07-02T01:42:34;16.20;99.90
11617;DHT22;5864;52.998;9.068;2023-07-02T01:45:21;16.10;99.90
11617;DHT22;5864;52.998;9.068;2023-07-02T01:48:06;16.20;99.90
11617;DHT22;5864;52.998;9.068;2023-07-02T01:50:52;16.20;99.90
11617;DHT22;5864;52.998;9.068;2023-07-02T01:53:39;16.10;99.90
11617;DHT22;5864;52.998;9.068;2023-07-02T01:56:25;16.20;99.90
11617;DHT22;5864;52.998;9.068;2023-07-02T01:59:10;16.20;99.90
11617;DHT22;5864;52.998;9.068;2023-07-02T02:01:55;16.30;99.90
11617;DHT22;5864;52.998;9.068;2023-07-02T02:04:41;16.20;99.90
11617;DHT22;5864;52.998;9.068;2023-07-02T02:07:27;16.10;99.90
11617;DHT22;5864;52.998;9.068;2023-07-02T02:10:15;16.20;99.90
11617;DHT22;5864;52.998;9.068;2023-07-02T02:13:00;16.10;99.90
11617;DHT22;5864;52.998;9.068;2023-07-02T02:15:47;16.20;99.90
11617;DHT22;5864;52.998;9.068;2023-07-02T02:18:32;16.20;99.90
11617;DHT22;5864;52.998;9.068;2023-07-02T02:21:18;16.10;99.90
11617;DHT22;5864;52.998;9.068;2023-07-02T02:24:05;16.10;99.90
11617;DHT22;5864;52.998;9.068;2023-07-02T02:26:52;16.10;99.90
11617;DHT22;5864;52.998;9.068;2023-07-02T02:29:38;16.10;99.90
11617;DHT22;5864;52.998;9.068;2023-07-02T02:32:23;16.10;99.90
11617;DHT22;5864;52.998;9.068;2023-07-02T02:35:10;16.10;99.90
11617;DHT22;5864;52.998;9.068;2023-07-02T02:37:55;16.00;99.90
11617;DHT22;5864;52.998;9.068;2023-07-02T02:40:41;16.10;99.90
11617;DHT22;5864;52.998;9.068;2023-07-02T02:43:28;16.00;99.90
11617;DHT22;5864;52.998;9.068;2023-07-02T02:46:19;16.00;99.90
11617;DHT22;5864;52.998;9.068;2023-07-02T02:49:06;16.00;99.90
11617;DHT22;5864;52.998;9.068;2023-07-02T02:51:52;16.10;99.90
11617;DHT22;5864;52.998;9.068;2023-07-02T02:54:37;16.00;99.90
11617;DHT22;5864;52.998;9.068;2023-07-02T02:57:22;15.90;99.90
11617;DHT22;5864;52.998;9.068;2023-07-02T03:00:11;15.90;99.90
11617;DHT22;5864;52.998;9.068;2023-07-02T03:02:57;16.00;99.90
11617;DHT22;5864;52.998;9.068;2023-07-02T03:05:43;15.90;99.90
11617;DHT22;5864;52.998;9.068;2023-07-02T03:08:29;15.90;99.90
11617;DHT22;5864;52.998;9.068;2023-07-02T03:11:14;15.90;99.90
11617;DHT22;5864;52.998;9.068;2023-07-02T03:14:00;16.00;99.90
11617;DHT22;5864;52.998;9.068;2023-07-02T03:16:47;15.90;99.90
11617;DHT22;5864;52.998;9.068;2023-07-02T03:19:32;15.90;99.90
11617;DHT22;5864;52.998;9.068;2023-07-02T03:22:19;15.80;99.90
11617;DHT22;5864;52.998;9.068;2023-07-02T03:25:05;15.80;99.90
11617;DHT22;5864;52.998;9.068;2023-07-02T03:27:51;15.80;99.90
11617;DHT22;5864;52.998;9.068;2023-07-02T03:30:36;15.80;99.90
11617;DHT22;5864;52.998;9.068;2023-07-02T03:33:24;15.80;99.90
11617;DHT22;5864;52.998;9.068;2023-07-02T03:36:09;15.80;99.90
11617;DHT22;5864;52.998;9.068;2023-07-02T03:38:55;15.80;99.90
11617;DHT22;5864;52.998;9.068;2023-07-02T03:41:40;15.80;99.90
11617;DHT22;5864;52.998;9.068;2023-07-02T03:44:26;15.80;99.90
11617;DHT22;5864;52.998;9.068;2023-07-02T03:47:11;15.90;99.90
11617;DHT22;5864;52.998;9.068;2023-07-02T03:50:01;15.90;99.90
11617;DHT22;5864;52.998;9.068;2023-07-02T03:52:46;16.00;99.90
11617;DHT22;5864;52.998;9.068;2023-07-02T03:55:32;16.00;99.90
11617;DHT22;5864;52.998;9.068;2023-07-02T03:58:17;16.00;99.90
11617;DHT22;5864;52.998;9.068;2023-07-02T04:01:03;16.00;99.90
11617;DHT22;5864;52.998;9.068;2023-07-02T04:03:51;16.00;99.90
11617;DHT22;5864;52.998;9.068;2023-07-02T04:06:38;15.90;99.90
11617;DHT22;5864;52.998;9.068;2023-07-02T04:09:24;15.80;99.90
11617;DHT22;5864;52.998;9.068;2023-07-02T04:12:09;15.90;99.90
11617;DHT22;5864;52.998;9.068;2023-07-02T04:14:56;15.80;99.90
11617;DHT22;5864;52.998;9.068;2023-07-02T04:17:41;15.80;99.90
11617;DHT22;5864;52.998;9.068;2023-07-02T04:20:27;15.90;99.90
11617;DHT22;5864;52.998;9.068;2023-07-02T04:23:15;16.00;99.90
11617;DHT22;5864;52.998;9.068;2023-07-02T04:26:01;16.00;99.90
11617;DHT22;5864;52.998;9.068;2023-07-02T04:28:46;16.00;99.90
11617;DHT22;5864;52.998;9.068;2023-07-02T04:31:33;16.00;99.90
11617;DHT22;5864;52.998;9.068;2023-07-02T04:34:18;16.00;99.90
11617;DHT22;5864;52.998;9.068;2023-07-02T04:37:06;16.00;99.90
11617;DHT22;5864;52.998;9.068;2023-07-02T04:39:53;16.10;99.90
11617;DHT22;5864;52.998;9.068;2023-07-02T04:42:42;16.20;99.90
11617;DHT22;5864;52.998;9.068;2023-07-02T04:45:31;16.30;99.90
11617;DHT22;5864;52.998;9.068;2023-07-02T04:48:19;16.30;99.90
11617;DHT22;5864;52.998;9.068;2023-07-02T04:51:05;16.40;99.90
11617;DHT22;5864;52.998;9.068;2023-07-02T04:53:51;16.50;99.90
11617;DHT22;5864;52.998;9.068;2023-07-02T04:56:38;16.50;99.90
11617;DHT22;5864;52.998;9.068;2023-07-02T04:59:24;16.60;99.90
11617;DHT22;5864;52.998;9.068;2023-07-02T05:02:10;16.70;99.90
11617;DHT22;5864;52.998;9.068;2023-07-02T05:04:55;16.80;99.90
11617;DHT22;5864;52.998;9.068;2023-07-02T05:07:42;16.80;97.20
11617;DHT22;5864;52.998;9.068;2023-07-02T05:10:27;16.90;94.90
11617;DHT22;5864;52.998;9.068;2023-07-02T05:13:14;16.90;93.80
11617;DHT22;5864;52.998;9.068;2023-07-02T05:15:59;17.00;97.30
11617;DHT22;5864;52.998;9.068;2023-07-02T05:18:45;17.00;74.50
11617;DHT22;5864;52.998;9.068;2023-07-02T05:21:31;17.10;76.20
11617;DHT22;5864;52.998;9.068;2023-07-02T05:24:16;17.20;74.50
11617;DHT22;5864;52.998;9.068;2023-07-02T05:27:02;17.20;66.60
11617;DHT22;5864;52.998;9.068;2023-07-02T05:29:49;17.40;74.40
11617;DHT22;5864;52.998;9.068;2023-07-02T05:32:35;17.50;55.90
11617;DHT22;5864;52.998;9.068;2023-07-02T05:35:21;17.50;51.80
11617;DHT22;5864;52.998;9.068;2023-07-02T05:38:06;17.50;50.00
11617;DHT22;5864;52.998;9.068;2023-07-02T05:40:52;17.60;42.70
11617;DHT22;5864;52.998;9.068;2023-07-02T05:43:37;17.60;41.60
11617;DHT22;5864;52.998;9.068;2023-07-02T05:46:24;17.70;37.60
11617;DHT22;5864;52.998;9.068;2023-07-02T05:49:10;17.80;20.70
11617;DHT22;5864;52.998;9.068;2023-07-02T05:51:55;17.90;1.00
11617;DHT22;5864;52.998;9.068;2023-07-02T05:54:41;17.90;1.00
11617;DHT22;5864;52.998;9.068;2023-07-02T05:57:27;18.00;1.00
11617;DHT22;5864;52.998;9.068;2023-07-02T06:00:14;17.80;1.00
11617;DHT22;5864;52.998;9.068;2023-07-02T06:03:01;18.20;1.00
11617;DHT22;5864;52.998;9.068;2023-07-02T06:05:47;18.40;1.00
11617;DHT22;5864;52.998;9.068;2023-07-02T06:08:33;18.40;1.00
11617;DHT22;5864;52.998;9.068;2023-07-02T06:11:18;18.40;1.00
11617;DHT22;5864;52.998;9.068;2023-07-02T06:14:04;18.50;1.00
11617;DHT22;5864;52.998;9.068;2023-07-02T06:16:49;18.60;1.00
11617;DHT22;5864;52.998;9.068;2023-07-02T06:19:37;18.80;1.00
11617;DHT22;5864;52.998;9.068;2023-07-02T06:22:24;18.80;1.00
11617;DHT22;5864;52.998;9.068;2023-07-02T06:25:09;18.90;1.00
11617;DHT22;5864;52.998;9.068;2023-07-02T06:27:55;18.80;1.00
11617;DHT22;5864;52.998;9.068;2023-07-02T06:30:42;18.80;1.00
11617;DHT22;5864;52.998;9.068;2023-07-02T06:33:27;19.00;1.00
11617;DHT22;5864;52.998;9.068;2023-07-02T06:36:14;19.00;1.00
11617;DHT22;5864;52.998;9.068;2023-07-02T06:39:00;19.20;1.00
11617;DHT22;5864;52.998;9.068;2023-07-02T06:41:46;19.40;1.00
11617;DHT22;5864;52.998;9.068;2023-07-02T06:44:31;19.60;1.00
11617;DHT22;5864;52.998;9.068;2023-07-02T06:47:17;19.50;1.00
11617;DHT22;5864;52.998;9.068;2023-07-02T06:50:02;19.70;1.00
11617;DHT22;5864;52.998;9.068;2023-07-02T06:52:50;19.80;1.00
11617;DHT22;5864;52.998;9.068;2023-07-02T06:55:35;19.90;1.00
11617;DHT22;5864;52.998;9.068;2023-07-02T06:58:21;19.70;1.00
11617;DHT22;5864;52.998;9.068;2023-07-02T07:01:07;19.90;1.00
11617;DHT22;5864;52.998;9.068;2023-07-02T07:03:53;20.00;99.90
11617;DHT22;5864;52.998;9.068;2023-07-02T07:06:38;20.10;99.90
11617;DHT22;5864;52.998;9.068;2023-07-02T07:09:25;20.20;1.00
11617;DHT22;5864;52.998;9.068;2023-07-02T07:12:12;20.40;99.90
11617;DHT22;5864;52.998;9.068;2023-07-02T07:14:57;20.60;99.90
11617;DHT22;5864;52.998;9.068;2023-07-02T07:17:43;20.60;99.90
11617;DHT22;5864;52.998;9.068;2023-07-02T07:20:29;20.60;1.00
11617;DHT22;5864;52.998;9.068;2023-07-02T07:23:15;20.70;99.90
11617;DHT22;5864;52.998;9.068;2023-07-02T07:26:03;21.00;1.00
11617;DHT22;5864;52.998;9.068;2023-07-02T07:28:49;21.20;1.00
11617;DHT22;5864;52.998;9.068;2023-07-02T07:31:34;21.30;99.90
11617;DHT22;5864;52.998;9.068;2023-07-02T07:34:20;21.20;29.60
11617;DHT22;5864;52.998;9.068;2023-07-02T07:37:05;21.20;99.90
11617;DHT22;5864;52.998;9.068;2023-07-02T07:39:51;21.20;99.90
11617;DHT22;5864;52.998;9.068;2023-07-02T07:42:38;21.00;99.90
11617;DHT22;5864;52.998;9.068;2023-07-02T07:45:24;20.90;1.00
11617;DHT22;5864;52.998;9.068;2023-07-02T07:48:09;20.90;99.90
11617;DHT22;5864;52.998;9.068;2023-07-02T07:50:55;21.00;1.00
11617;DHT22;5864;52.998;9.068;2023-07-02T07:53:41;21.30;1.00
11617;DHT22;5864;52.998;9.068;2023-07-02T07:56:27;21.40;1.00
11617;DHT22;5864;52.998;9.068;2023-07-02T07:59:14;21.50;99.90
11617;DHT22;5864;52.998;9.068;2023-07-02T08:01:59;21.70;1.00
11617;DHT22;5864;52.998;9.068;2023-07-02T08:04:46;22.00;1.00
11617;DHT22;5864;52.998;9.068;2023-07-02T08:07:32;21.70;1.00
11617;DHT22;5864;52.998;9.068;2023-07-02T08:10:18;21.10;99.90
11617;DHT22;5864;52.998;9.068;2023-07-02T08:13:04;21.10;1.00
11617;DHT22;5864;52.998;9.068;2023-07-02T08:15:51;21.30;1.00
11617;DHT22;5864;52.998;9.068;2023-07-02T08:18:37;21.50;99.90
11617;DHT22;5864;52.998;9.068;2023-07-02T08:21:22;21.20;99.90
11617;DHT22;5864;52.998;9.068;2023-07-02T08:24:08;21.50;1.00
11617;DHT22;5864;52.998;9.068;2023-07-02T08:26:53;21.80;1.00
11617;DHT22;5864;52.998;9.068;2023-07-02T08:29:39;21.80;1.00
11617;DHT22;5864;52.998;9.068;2023-07-02T08:32:26;21.60;1.00
11617;DHT22;5864;52.998;9.068;2023-07-02T08:35:11;21.50;1.00
11617;DHT22;5864;52.998;9.068;2023-07-02T08:37:57;21.60;99.90
11617;DHT22;5864;52.998;9.068;2023-07-02T08:40:42;21.90;1.00
11617;DHT22;5864;52.998;9.068;2023-07-02T08:43:29;22.30;1.00
11617;DHT22;5864;52.998;9.068;2023-07-02T08:46:15;23.10;95.20
11617;DHT22;5864;52.998;9.068;2023-07-02T08:49:01;23.40;82.60
11617;DHT22;5864;52.998;9.068;2023-07-02T08:51:48;23.70;1.00
11617;DHT22;5864;52.998;9.068;2023-07-02T08:54:33;24.40;1.00
11617;DHT22;5864;52.998;9.068;2023-07-02T08:57:19;24.90;1.00
11617;DHT22;5864;52.998;9.068;2023-07-02T09:00:08;25.00;1.00
11617;DHT22;5864;52.998;9.068;2023-07-02T09:02:54;25.30;1.00
11617;DHT22;5864;52.998;9.068;2023-07-02T09:05:49;25.30;1.00
11617;DHT22;5864;52.998;9.068;2023-07-02T09:08:35;25.70;1.00
11617;DHT22;5864;52.998;9.068;2023-07-02T09:11:21;25.80;1.00
11617;DHT22;5864;52.998;9.068;2023-07-02T09:14:07;25.10;1.00
11617;DHT22;5864;52.998;9.068;2023-07-02T09:17:03;25.00;1.00
11617;DHT22;5864;52.998;9.068;2023-07-02T09:19:50;24.30;1.00
11617;DHT22;5864;52.998;9.068;2023-07-02T09:22:37;23.70;1.00
11617;DHT22;5864;52.998;9.068;2023-07-02T09:25:37;22.90;1.00
11617;DHT22;5864;52.998;9.068;2023-07-02T09:28:23;22.00;1.00
11617;DHT22;5864;52.998;9.068;2023-07-02T09:31:08;21.60;1.00
11617;DHT22;5864;52.998;9.068;2023-07-02T09:34:01;21.40;46.10
11617;DHT22;5864;52.998;9.068;2023-07-02T09:36:46;21.30;99.90
11617;DHT22;5864;52.998;9.068;2023-07-02T09:39:35;21.10;1.00
11617;DHT22;5864;52.998;9.068;2023-07-02T09:42:21;21.40;99.90
11617;DHT22;5864;52.998;9.068;2023-07-02T09:45:08;21.90;99.90
11617;DHT22;5864;52.998;9.068;2023-07-02T09:47:55;22.70;99.90
11617;DHT22;5864;52.998;9.068;2023-07-02T09:50:44;23.60;1.00
11617;DHT22;5864;52.998;9.068;2023-07-02T09:53:30;22.80;1.00
11617;DHT22;5864;52.998;9.068;2023-07-02T09:56:17;23.00;1.00
11617;DHT22;5864;52.998;9.068;2023-07-02T09:59:05;22.80;1.00
11617;DHT22;5864;52.998;9.068;2023-07-02T10:01:51;22.30;26.50
11617;DHT22;5864;52.998;9.068;2023-07-02T10:04:41;21.50;99.90
11617;DHT22;5864;52.998;9.068;2023-07-02T10:07:28;21.30;1.00
11617;DHT22;5864;52.998;9.068;2023-07-02T10:10:26;21.50;1.00
11617;DHT22;5864;52.998;9.068;2023-07-02T10:13:13;21.80;98.20
11617;DHT22;5864;52.998;9.068;2023-07-02T10:16:02;21.90;21.60
11617;DHT22;5864;52.998;9.068;2023-07-02T10:18:47;22.20;1.00
11617;DHT22;5864;52.998;9.068;2023-07-02T10:21:33;22.60;1.00
11617;DHT22;5864;52.998;9.068;2023-07-02T10:24:19;23.20;31.90
11617;DHT22;5864;52.998;9.068;2023-07-02T10:27:04;23.30;1.00
11617;DHT22;5864;52.998;9.068;2023-07-02T10:29:51;23.40;1.00
11617;DHT22;5864;52.998;9.068;2023-07-02T10:32:37;23.60;1.00
11617;DHT22;5864;52.998;9.068;2023-07-02T10:35:23;23.70;1.00
11617;DHT22;5864;52.998;9.068;2023-07-02T10:38:14;23.50;1.00
11617;DHT22;5864;52.998;9.068;2023-07-02T10:41:00;23.10;1.00
11617;DHT22;5864;52.998;9.068;2023-07-02T10:43:45;22.60;1.00
11617;DHT22;5864;52.998;9.068;2023-07-02T10:46:32;22.20;1.00
11617;DHT22;5864;52.998;9.068;2023-07-02T10:49:18;22.10;99.90
11617;DHT22;5864;52.998;9.068;2023-07-02T10:52:05;22.40;99.90
11617;DHT22;5864;52.998;9.068;2023-07-02T10:54:51;22.70;99.90
11617;DHT22;5864;52.998;9.068;2023-07-02T10:57:37;23.50;99.90
11617;DHT22;5864;52.998;9.068;2023-07-02T11:00:22;24.00;1.00
11617;DHT22;5864;52.998;9.068;2023-07-02T11:03:16;23.80;1.00
11617;DHT22;5864;52.998;9.068;2023-07-02T11:06:02;23.20;1.00
11617;DHT22;5864;52.998;9.068;2023-07-02T11:08:48;23.70;1.00
11617;DHT22;5864;52.998;9.068;2023-07-02T11:11:33;24.20;1.00
11617;DHT22;5864;52.998;9.068;2023-07-02T11:14:29;23.70;1.00
11617;DHT22;5864;52.998;9.068;2023-07-02T11:17:15;23.20;1.00
11617;DHT22;5864;52.998;9.068;2023-07-02T11:20:02;22.80;1.00
11617;DHT22;5864;52.998;9.068;2023-07-02T11:22:50;22.60;1.00
11617;DHT22;5864;52.998;9.068;2023-07-02T11:25:35;22.60;1.00
11617;DHT22;5864;52.998;9.068;2023-07-02T11:28:21;22.80;1.00
11617;DHT22;5864;52.998;9.068;2023-07-02T11:31:07;22.60;1.00
11617;DHT22;5864;52.998;9.068;2023-07-02T11:33:53;22.30;1.00
11617;DHT22;5864;52.998;9.068;2023-07-02T11:36:40;22.70;1.00
11617;DHT22;5864;52.998;9.068;2023-07-02T11:39:25;23.40;1.00
11617;DHT22;5864;52.998;9.068;2023-07-02T11:42:11;24.00;1.00
11617;DHT22;5864;52.998;9.068;2023-07-02T11:44:56;23.90;1.00
11617;DHT22;5864;52.998;9.068;2023-07-02T11:47:42;23.80;1.00
11617;DHT22;5864;52.998;9.068;2023-07-02T11:50:28;23.80;1.00
11617;DHT22;5864;52.998;9.068;2023-07-02T11:53:15;23.70;1.00
11617;DHT22;5864;52.998;9.068;2023-07-02T11:56:01;23.70;1.00
11617;DHT22;5864;52.998;9.068;2023-07-02T11:58:47;23.80;1.00
11617;DHT22;5864;52.998;9.068;2023-07-02T12:01:32;23.60;1.00
11617;DHT22;5864;52.998;9.068;2023-07-02T12:04:18;23.40;1.00
11617;DHT22;5864;52.998;9.068;2023-07-02T12:07:04;23.20;1.00
11617;DHT22;5864;52.998;9.068;2023-07-02T12:09:51;23.00;1.00
11617;DHT22;5864;52.998;9.068;2023-07-02T12:12:37;23.10;1.00
11617;DHT22;5864;52.998;9.068;2023-07-02T12:15:22;23.20;1.00
11617;DHT22;5864;52.998;9.068;2023-07-02T12:18:09;23.60;1.00
11617;DHT22;5864;52.998;9.068;2023-07-02T12:20:55;24.20;1.00
11617;DHT22;5864;52.998;9.068;2023-07-02T12:23:40;24.60;1.00
11617;DHT22;5864;52.998;9.068;2023-07-02T12:26:27;24.70;1.00
11617;DHT22;5864;52.998;9.068;2023-07-02T12:29:13;24.80;1.00
11617;DHT22;5864;52.998;9.068;2023-07-02T12:31:59;24.80;1.00
11617;DHT22;5864;52.998;9.068;2023-07-02T12:34:45;24.30;1.00
11617;DHT22;5864;52.998;9.068;2023-07-02T12:37:32;23.80;1.00
11617;DHT22;5864;52.998;9.068;2023-07-02T12:40:18;23.50;1.00
11617;DHT22;5864;52.998;9.068;2023-07-02T12:43:05;23.20;1.00
11617;DHT22;5864;52.998;9.068;2023-07-02T12:45:50;22.90;1.00
11617;DHT22;5864;52.998;9.068;2023-07-02T12:48:36;22.70;1.00
11617;DHT22;5864;52.998;9.068;2023-07-02T12:51:22;22.20;1.00
11617;DHT22;5864;52.998;9.068;2023-07-02T12:54:08;22.20;1.00
11617;DHT22;5864;52.998;9.068;2023-07-02T12:56:54;22.30;1.00
11617;DHT22;5864;52.998;9.068;2023-07-02T12:59:40;22.20;1.00
11617;DHT22;5864;52.998;9.068;2023-07-02T13:02:26;22.30;1.00
11617;DHT22;5864;52.998;9.068;2023-07-02T13:05:12;22.70;1.00
11617;DHT22;5864;52.998;9.068;2023-07-02T13:07:58;22.80;1.00
11617;DHT22;5864;52.998;9.068;2023-07-02T13:10:43;22.90;1.00
11617;DHT22;5864;52.998;9.068;2023-07-02T13:13:29;22.80;1.00
11617;DHT22;5864;52.998;9.068;2023-07-02T13:16:16;22.60;1.00
11617;DHT22;5864;52.998;9.068;2023-07-02T13:19:01;22.40;1.00
11617;DHT22;5864;52.998;9.068;2023-07-02T13:21:47;22.20;1.00
11617;DHT22;5864;52.998;9.068;2023-07-02T13:24:33;22.50;1.00
11617;DHT22;5864;52.998;9.068;2023-07-02T13:27:20;22.80;1.00
11617;DHT22;5864;52.998;9.068;2023-07-02T13:30:07;22.90;1.00
11617;DHT22;5864;52.998;9.068;2023-07-02T13:32:54;23.20;1.00
11617;DHT22;5864;52.998;9.068;2023-07-02T13:35:40;23.20;1.00
11617;DHT22;5864;52.998;9.068;2023-07-02T13:38:28;22.90;1.00
11617;DHT22;5864;52.998;9.068;2023-07-02T13:41:13;22.80;1.00
11617;DHT22;5864;52.998;9.068;2023-07-02T13:43:59;22.60;1.00
11617;DHT22;5864;52.998;9.068;2023-07-02T13:46:45;22.50;1.00
11617;DHT22;5864;52.998;9.068;2023-07-02T13:49:33;22.20;1.00
11617;DHT22;5864;52.998;9.068;2023-07-02T13:52:19;22.50;1.00
11617;DHT22;5864;52.998;9.068;2023-07-02T13:55:05;22.60;1.00
11617;DHT22;5864;52.998;9.068;2023-07-02T13:57:52;22.80;1.00
11617;DHT22;5864;52.998;9.068;2023-07-02T14:00:39;23.00;1.00
11617;DHT22;5864;52.998;9.068;2023-07-02T14:03:24;22.50;1.00
11617;DHT22;5864;52.998;9.068;2023-07-02T14:06:10;22.30;1.00
11617;DHT22;5864;52.998;9.068;2023-07-02T14:08:55;22.40;1.00
11617;DHT22;5864;52.998;9.068;2023-07-02T14:11:42;22.60;1.00
11617;DHT22;5864;52.998;9.068;2023-07-02T14:14:28;22.60;1.00
11617;DHT22;5864;52.998;9.068;2023-07-02T14:17:15;22.40;1.00
11617;DHT22;5864;52.998;9.068;2023-07-02T14:20:01;22.30;1.00
11617;DHT22;5864;52.998;9.068;2023-07-02T14:22:47;21.80;1.00
11617;DHT22;5864;52.998;9.068;2023-07-02T14:25:32;21.60;1.00
11617;DHT22;5864;52.998;9.068;2023-07-02T14:28:18;21.90;1.00
11617;DHT22;5864;52.998;9.068;2023-07-02T14:31:04;22.40;1.00
11617;DHT22;5864;52.998;9.068;2023-07-02T14:33:52;22.40;1.00
11617;DHT22;5864;52.998;9.068;2023-07-02T14:36:38;22.40;1.00
11617;DHT22;5864;52.998;9.068;2023-07-02T14:39:23;22.30;1.00
11617;DHT22;5864;52.998;9.068;2023-07-02T14:42:09;22.00;1.00
11617;DHT22;5864;52.998;9.068;2023-07-02T14:44:55;22.10;1.00
11617;DHT22;5864;52.998;9.068;2023-07-02T14:47:41;21.80;1.00
11617;DHT22;5864;52.998;9.068;2023-07-02T14:50:28;22.00;1.00
11617;DHT22;5864;52.998;9.068;2023-07-02T14:53:15;22.30;1.00
11617;DHT22;5864;52.998;9.068;2023-07-02T14:56:02;22.50;1.00
11617;DHT22;5864;52.998;9.068;2023-07-02T14:58:47;22.50;1.00
11617;DHT22;5864;52.998;9.068;2023-07-02T15:01:34;22.40;1.00
11617;DHT22;5864;52.998;9.068;2023-07-02T15:04:19;22.00;1.00
11617;DHT22;5864;52.998;9.068;2023-07-02T15:07:07;22.20;1.00
11617;DHT22;5864;52.998;9.068;2023-07-02T15:09:52;22.40;1.00
11617;DHT22;5864;52.998;9.068;2023-07-02T15:12:38;22.30;1.00
11617;DHT22;5864;52.998;9.068;2023-07-02T15:15:24;22.00;1.00
11617;DHT22;5864;52.998;9.068;2023-07-02T15:18:09;21.90;1.00
11617;DHT22;5864;52.998;9.068;2023-07-02T15:20:56;21.80;1.00
11617;DHT22;5864;52.998;9.068;2023-07-02T15:23:43;21.70;1.00
11617;DHT22;5864;52.998;9.068;2023-07-02T15:26:28;21.80;1.00
11617;DHT22;5864;52.998;9.068;2023-07-02T15:29:14;21.90;1.00
11617;DHT22;5864;52.998;9.068;2023-07-02T15:31:59;22.00;1.00
11617;DHT22;5864;52.998;9.068;2023-07-02T15:34:46;22.10;1.00
11617;DHT22;5864;52.998;9.068;2023-07-02T15:37:31;21.90;1.00
11617;DHT22;5864;52.998;9.068;2023-07-02T15:40:18;21.90;1.00
11617;DHT22;5864;52.998;9.068;2023-07-02T15:43:04;22.00;1.00
11617;DHT22;5864;52.998;9.068;2023-07-02T15:45:51;22.10;1.00
11617;DHT22;5864;52.998;9.068;2023-07-02T15:48:37;22.30;1.00
11617;DHT22;5864;52.998;9.068;2023-07-02T15:51:23;22.60;1.00
11617;DHT22;5864;52.998;9.068;2023-07-02T15:54:09;22.50;1.00
11617;DHT22;5864;52.998;9.068;2023-07-02T15:56:56;22.30;1.00
11617;DHT22;5864;52.998;9.068;2023-07-02T15:59:42;22.30;1.00
11617;DHT22;5864;52.998;9.068;2023-07-02T16:02:28;22.30;1.00
11617;DHT22;5864;52.998;9.068;2023-07-02T16:05:14;22.30;1.00
11617;DHT22;5864;52.998;9.068;2023-07-02T16:07:59;22.20;1.00
11617;DHT22;5864;52.998;9.068;2023-07-02T16:10:45;22.40;1.00
11617;DHT22;5864;52.998;9.068;2023-07-02T16:13:32;22.10;1.00
11617;DHT22;5864;52.998;9.068;2023-07-02T16:16:17;21.80;1.00
11617;DHT22;5864;52.998;9.068;2023-07-02T16:19:03;21.90;1.00
11617;DHT22;5864;52.998;9.068;2023-07-02T16:21:49;22.00;1.00
11617;DHT22;5864;52.998;9.068;2023-07-02T16:24:35;22.10;1.00
11617;DHT22;5864;52.998;9.068;2023-07-02T16:27:21;22.10;1.00
11617;DHT22;5864;52.998;9.068;2023-07-02T16:30:08;21.90;1.00
11617;DHT22;5864;52.998;9.068;2023-07-02T16:32:54;21.50;1.00
11617;DHT22;5864;52.998;9.068;2023-07-02T16:35:40;21.70;1.00
11617;DHT22;5864;52.998;9.068;2023-07-02T16:38:25;21.70;1.00
11617;DHT22;5864;52.998;9.068;2023-07-02T16:41:11;21.60;1.00
11617;DHT22;5864;52.998;9.068;2023-07-02T16:43:57;21.60;1.00
11617;DHT22;5864;52.998;9.068;2023-07-02T16:46:45;21.50;1.00
11617;DHT22;5864;52.998;9.068;2023-07-02T16:49:31;21.50;1.00
11617;DHT22;5864;52.998;9.068;2023-07-02T16:52:17;21.20;1.00
11617;DHT22;5864;52.998;9.068;2023-07-02T16:55:03;21.10;1.00
11617;DHT22;5864;52.998;9.068;2023-07-02T16:57:48;21.00;1.00
11617;DHT22;5864;52.998;9.068;2023-07-02T17:00:34;21.10;1.00
11617;DHT22;5864;52.998;9.068;2023-07-02T17:03:21;20.90;1.00
11617;DHT22;5864;52.998;9.068;2023-07-02T17:06:07;20.70;1.00
11617;DHT22;5864;52.998;9.068;2023-07-02T17:09:17;20.70;1.00
11617;DHT22;5864;52.998;9.068;2023-07-02T17:12:06;20.50;1.00
11617;DHT22;5864;52.998;9.068;2023-07-02T17:14:53;20.70;1.00
11617;DHT22;5864;52.998;9.068;2023-07-02T17:17:38;20.90;1.00
11617;DHT22;5864;52.998;9.068;2023-07-02T17:20:25;21.00;1.00
11617;DHT22;5864;52.998;9.068;2023-07-02T17:23:11;20.90;1.00
11617;DHT22;5864;52.998;9.068;2023-07-02T17:26:00;20.90;1.00
11617;DHT22;5864;52.998;9.068;2023-07-02T17:28:47;20.90;1.00
11617;DHT22;5864;52.998;9.068;2023-07-02T17:31:33;21.10;1.00
11617;DHT22;5864;52.998;9.068;2023-07-02T17:34:20;21.00;1.00
11617;DHT22;5864;52.998;9.068;2023-07-02T17:37:08;20.80;1.00
11617;DHT22;5864;52.998;9.068;2023-07-02T17:39:55;20.70;1.00
11617;DHT22;5864;52.998;9.068;2023-07-02T17:42:41;20.80;1.00
11617;DHT22;5864;52.998;9.068;2023-07-02T17:45:26;20.40;1.00
11617;DHT22;5864;52.998;9.068;2023-07-02T17:48:12;20.20;1.00
11617;DHT22;5864;52.998;9.068;2023-07-02T17:50:59;20.20;1.00
11617;DHT22;5864;52.998;9.068;2023-07-02T17:53:46;20.20;1.00
11617;DHT22;5864;52.998;9.068;2023-07-02T17:56:32;20.20;1.00
11617;DHT22;5864;52.998;9.068;2023-07-02T17:59:18;20.10;1.00